createdAt,value
2018-10-11T00:02:28.800Z,16.77
2018-10-11T00:04:57.588Z,16.63
2018-10-11T00:07:26.417Z,16.83
2018-10-11T00:09:55.218Z,17.67
2018-10-11T00:12:23.980Z,17.07
2018-10-11T00:14:52.704Z,17.40
2018-10-11T00:17:21.448Z,16.87
2018-10-11T00:19:50.223Z,16.30
2018-10-11T00:22:18.932Z,16.20
2018-10-11T00:24:47.674Z,15.60
2018-10-11T00:27:16.428Z,15.07
2018-10-11T00:29:45.172Z,14.97
2018-10-11T00:32:13.912Z,16.13
2018-10-11T00:34:42.623Z,15.57
2018-10-11T00:37:11.369Z,16.00
2018-10-11T00:39:40.095Z,16.33
2018-10-11T00:42:08.851Z,16.70
2018-10-11T00:44:37.577Z,16.50
2018-10-11T00:47:06.313Z,15.97
2018-10-11T00:49:35.154Z,14.63
2018-10-11T00:52:03.800Z,14.23
2018-10-11T00:54:32.578Z,14.00
2018-10-11T00:57:01.315Z,13.97
2018-10-11T00:59:30.045Z,13.93
2018-10-11T01:01:58.773Z,13.03
2018-10-11T01:04:27.513Z,13.30
2018-10-11T01:06:56.314Z,12.83
2018-10-11T01:09:25.179Z,13.50
2018-10-11T01:11:53.850Z,13.37
2018-10-11T01:14:22.594Z,12.70
2018-10-11T01:16:51.381Z,13.27
2018-10-11T01:19:20.150Z,12.13
2018-10-11T01:21:48.961Z,12.83
2018-10-11T01:24:17.730Z,13.43
2018-10-11T01:26:46.450Z,12.50
2018-10-11T01:29:15.140Z,13.03
2018-10-11T01:31:43.876Z,13.07
2018-10-11T01:34:12.769Z,13.10
2018-10-11T01:36:41.558Z,12.73
2018-10-11T01:39:10.300Z,12.40
2018-10-11T01:41:39.167Z,12.50
2018-10-11T01:44:07.921Z,11.90
2018-10-11T01:46:36.760Z,12.70
2018-10-11T01:49:05.554Z,13.17
2018-10-11T01:51:34.376Z,13.10
2018-10-11T01:54:03.136Z,12.40
2018-10-11T01:56:31.941Z,13.10
2018-10-11T01:59:00.722Z,12.77
2018-10-11T02:01:29.511Z,13.53
2018-10-11T02:03:58.241Z,13.73
2018-10-11T02:06:27.101Z,13.77
2018-10-11T02:08:55.849Z,13.30
2018-10-11T02:11:24.564Z,12.87
2018-10-11T02:13:53.319Z,13.57
2018-10-11T02:16:22.058Z,13.83
2018-10-11T02:18:50.764Z,14.17
2018-10-11T02:21:19.528Z,13.67
2018-10-11T02:23:48.300Z,12.57
2018-10-11T02:26:18.591Z,13.60
2018-10-11T02:28:47.440Z,13.30
2018-10-11T02:31:16.238Z,13.30
2018-10-11T02:33:44.953Z,13.77
2018-10-11T02:36:13.708Z,14.07
2018-10-11T02:38:42.462Z,13.70
2018-10-11T02:41:11.237Z,13.83
2018-10-11T02:43:40.025Z,14.33
2018-10-11T02:46:08.818Z,13.70
2018-10-11T02:48:37.605Z,13.57
2018-10-11T02:51:06.579Z,13.97
2018-10-11T02:53:35.348Z,13.60
2018-10-11T02:56:04.409Z,13.43
2018-10-11T02:58:44.021Z,13.90
2018-10-11T03:01:12.879Z,12.90
2018-10-11T03:03:41.769Z,14.57
2018-10-11T03:06:10.605Z,13.83
2018-10-11T03:08:39.470Z,14.33
2018-10-11T03:11:08.346Z,14.53
2018-10-11T03:13:37.106Z,14.50
2018-10-11T03:16:05.882Z,14.37
2018-10-11T03:18:34.642Z,15.03
2018-10-11T03:21:03.468Z,15.60
2018-10-11T03:23:32.176Z,16.03
2018-10-11T03:26:00.917Z,15.17
2018-10-11T03:28:29.652Z,14.60
2018-10-11T03:30:58.393Z,15.47
2018-10-11T03:33:27.138Z,14.20
2018-10-11T03:35:55.923Z,14.30
2018-10-11T03:38:24.686Z,15.10
2018-10-11T03:40:53.444Z,14.73
2018-10-11T03:43:22.204Z,14.47
2018-10-11T03:45:50.976Z,14.77
2018-10-11T03:48:19.761Z,14.73
2018-10-11T03:50:48.524Z,15.20
2018-10-11T03:53:17.300Z,14.00
2018-10-11T03:55:46.028Z,14.63
2018-10-11T03:58:14.776Z,14.53
2018-10-11T04:00:43.593Z,13.23
2018-10-11T04:03:12.337Z,13.10
2018-10-11T04:05:41.079Z,13.37
2018-10-11T04:08:09.815Z,13.80
2018-10-11T04:10:38.572Z,13.33
2018-10-11T04:13:07.286Z,12.60
2018-10-11T04:15:36.101Z,11.70
2018-10-11T04:18:04.832Z,12.87
2018-10-11T04:20:33.549Z,12.17
2018-10-11T04:23:02.334Z,11.60
2018-10-11T04:25:31.111Z,12.43
2018-10-11T04:27:59.881Z,11.43
2018-10-11T04:30:28.643Z,11.33
2018-10-11T04:32:57.727Z,11.77
2018-10-11T04:35:26.784Z,10.87
2018-10-11T04:37:55.539Z,11.63
2018-10-11T04:40:24.320Z,12.30
2018-10-11T04:42:53.163Z,11.10
2018-10-11T04:45:21.851Z,11.83
2018-10-11T04:47:50.641Z,11.10
2018-10-11T04:50:19.432Z,11.70
2018-10-11T04:52:48.165Z,10.63
2018-10-11T04:55:16.895Z,10.77
2018-10-11T04:57:45.618Z,9.97
2018-10-11T05:00:14.361Z,10.30
2018-10-11T05:02:43.119Z,10.23
2018-10-11T05:05:11.945Z,10.27
2018-10-11T05:07:40.659Z,10.10
2018-10-11T05:10:09.629Z,10.13
2018-10-11T05:12:38.404Z,9.70
2018-10-11T05:15:07.770Z,9.73
2018-10-11T05:17:36.699Z,9.37
2018-10-11T05:20:05.528Z,9.13
2018-10-11T05:22:34.259Z,8.97
2018-10-11T05:25:03.045Z,9.07
2018-10-11T05:27:31.821Z,9.70
2018-10-11T05:30:00.627Z,8.60
2018-10-11T05:32:29.514Z,8.93
2018-10-11T05:34:58.297Z,10.17
2018-10-11T05:37:27.030Z,9.50
2018-10-11T05:39:56.000Z,10.07
2018-10-11T05:42:24.992Z,9.27
2018-10-11T05:44:59.039Z,9.63
2018-10-11T05:47:27.866Z,9.23
2018-10-11T05:49:56.667Z,10.03
2018-10-11T05:52:25.527Z,9.87
2018-10-11T05:54:54.378Z,10.07
2018-10-11T05:57:23.216Z,9.53
2018-10-11T05:59:52.044Z,9.13
2018-10-11T06:02:20.868Z,9.37
2018-10-11T06:04:49.735Z,9.57
2018-10-11T06:07:18.697Z,9.63
2018-10-11T06:09:47.539Z,9.50
2018-10-11T06:12:17.061Z,9.60
2018-10-11T06:14:46.367Z,8.97
2018-10-11T06:17:15.160Z,9.43
2018-10-11T06:19:44.025Z,8.77
2018-10-11T06:22:12.815Z,9.57
2018-10-11T06:24:41.677Z,9.07
2018-10-11T06:27:10.440Z,9.50
2018-10-11T06:29:39.247Z,9.30
2018-10-11T06:32:08.155Z,8.93
2018-10-11T06:34:36.962Z,8.67
2018-10-11T06:37:05.769Z,7.73
2018-10-11T06:39:34.661Z,8.40
2018-10-11T06:42:03.450Z,8.20
2018-10-11T06:44:32.373Z,8.70
2018-10-11T06:47:01.303Z,8.27
2018-10-11T06:49:30.127Z,8.90
2018-10-11T06:51:59.024Z,8.27
2018-10-11T06:54:27.882Z,7.50
2018-10-11T06:56:56.619Z,8.63
2018-10-11T06:59:25.428Z,8.13
2018-10-11T07:01:54.188Z,7.80
2018-10-11T07:04:22.896Z,7.63
2018-10-11T07:06:51.673Z,7.73
2018-10-11T07:09:20.418Z,8.20
2018-10-11T07:11:49.148Z,7.70
2018-10-11T07:14:17.910Z,8.03
2018-10-11T07:16:46.661Z,7.97
2018-10-11T07:19:15.446Z,8.27
2018-10-11T07:21:44.196Z,8.20
2018-10-11T07:24:13.004Z,8.33
2018-10-11T07:26:41.764Z,8.30
2018-10-11T07:29:10.579Z,7.63
2018-10-11T07:31:39.309Z,7.50
2018-10-11T07:34:08.072Z,8.50
2018-10-11T07:36:36.913Z,8.40
2018-10-11T07:39:09.132Z,8.30
2018-10-11T07:41:38.208Z,7.60
2018-10-11T07:44:07.392Z,7.40
2018-10-11T07:46:36.180Z,6.97
2018-10-11T07:49:06.025Z,7.87
2018-10-11T07:51:34.835Z,7.53
2018-10-11T07:54:03.796Z,7.27
2018-10-11T07:56:33.724Z,8.23
2018-10-11T07:59:02.681Z,7.80
2018-10-11T08:01:31.716Z,8.23
2018-10-11T08:04:00.581Z,7.23
2018-10-11T08:06:29.390Z,6.83
2018-10-11T08:08:58.257Z,6.80
2018-10-11T08:11:27.205Z,6.50
2018-10-11T08:13:55.883Z,6.27
2018-10-11T08:16:24.784Z,5.93
2018-10-11T08:18:53.576Z,5.67
2018-10-11T08:21:22.216Z,5.20
2018-10-11T08:23:51.004Z,5.30
2018-10-11T08:26:20.068Z,4.70
2018-10-11T08:28:48.524Z,4.97
2018-10-11T08:31:17.333Z,4.60
2018-10-11T08:33:46.119Z,4.50
2018-10-11T08:36:14.850Z,4.37
2018-10-11T08:38:43.605Z,4.17
2018-10-11T08:41:12.354Z,4.47
2018-10-11T08:43:41.143Z,4.43
2018-10-11T08:46:09.916Z,4.00
2018-10-11T08:48:38.692Z,4.47
2018-10-11T08:51:07.476Z,4.10
2018-10-11T08:53:36.307Z,3.60
2018-10-11T08:56:05.060Z,4.00
2018-10-11T08:58:33.797Z,3.73
2018-10-11T09:01:02.668Z,3.40
2018-10-11T09:03:31.467Z,3.60
2018-10-11T09:06:00.261Z,3.70
2018-10-11T09:08:29.077Z,3.17
2018-10-11T09:10:57.962Z,3.40
2018-10-11T09:13:26.689Z,2.93
2018-10-11T09:15:55.426Z,3.47
2018-10-11T09:18:24.191Z,3.17
2018-10-11T09:20:52.966Z,3.37
2018-10-11T09:23:21.820Z,3.70
2018-10-11T09:25:50.546Z,3.37
2018-10-11T09:28:19.417Z,3.00
2018-10-11T09:30:48.215Z,3.40
2018-10-11T09:33:16.964Z,3.57
2018-10-11T09:35:45.744Z,3.40
2018-10-11T09:38:14.541Z,3.27
2018-10-11T09:40:43.333Z,3.50
2018-10-11T09:43:12.165Z,4.43
2018-10-11T09:45:40.958Z,4.13
2018-10-11T09:48:09.679Z,4.50
2018-10-11T09:50:38.500Z,4.00
2018-10-11T09:53:07.290Z,4.50
2018-10-11T09:55:36.132Z,4.50
2018-10-11T09:58:04.912Z,4.37
2018-10-11T10:00:37.771Z,4.60
2018-10-11T10:03:06.721Z,4.20
2018-10-11T10:05:35.502Z,4.00
2018-10-11T10:08:04.303Z,3.97
2018-10-11T10:10:33.086Z,4.10
2018-10-11T10:13:01.876Z,3.73
2018-10-11T10:15:30.700Z,3.43
2018-10-11T10:17:59.456Z,3.13
2018-10-11T10:20:28.290Z,3.50
2018-10-11T10:22:57.092Z,3.67
2018-10-11T10:25:25.840Z,4.10
2018-10-11T10:27:54.627Z,3.97
2018-10-11T10:30:28.606Z,3.37
2018-10-11T10:32:57.412Z,3.47
2018-10-11T10:35:26.200Z,3.17
2018-10-11T10:37:55.006Z,3.43
2018-10-11T10:40:23.732Z,3.70
2018-10-11T10:42:52.488Z,3.87
2018-10-11T10:45:21.316Z,4.20
2018-10-11T10:47:50.115Z,3.90
2018-10-11T10:50:18.881Z,3.77
2018-10-11T10:52:48.542Z,4.37
2018-10-11T10:55:17.301Z,4.90
2018-10-11T10:57:46.070Z,4.37
2018-10-11T11:00:14.915Z,5.10
2018-10-11T11:02:43.676Z,4.97
2018-10-11T11:05:12.469Z,4.10
2018-10-11T11:07:41.272Z,4.67
2018-10-11T11:10:10.040Z,4.93
2018-10-11T11:12:38.798Z,4.90
2018-10-11T11:15:07.638Z,4.87
2018-10-11T11:17:36.434Z,5.00
2018-10-11T11:20:05.247Z,5.30
2018-10-11T11:22:34.155Z,5.10
2018-10-11T11:25:02.924Z,5.10
2018-10-11T11:27:31.639Z,4.63
2018-10-11T11:30:00.389Z,4.57
2018-10-11T11:32:29.115Z,4.23
2018-10-11T11:34:57.896Z,4.03
2018-10-11T11:37:26.608Z,3.43
2018-10-11T11:39:55.378Z,4.17
2018-10-11T11:42:24.095Z,3.30
2018-10-11T11:44:52.856Z,4.27
2018-10-11T11:47:21.544Z,3.80
2018-10-11T11:49:50.297Z,3.50
2018-10-11T11:52:19.678Z,3.60
2018-10-11T11:54:48.431Z,4.10
2018-10-11T11:57:17.253Z,4.00
2018-10-11T11:59:46.037Z,3.10
2018-10-11T12:02:14.874Z,3.67
2018-10-11T12:04:43.634Z,3.30
2018-10-11T12:07:12.408Z,3.20
2018-10-11T12:09:41.195Z,3.90
2018-10-11T12:12:10.424Z,3.20
2018-10-11T12:14:39.148Z,3.27
2018-10-11T12:17:07.968Z,3.30
2018-10-11T12:19:36.736Z,3.07
2018-10-11T12:22:05.586Z,3.33
2018-10-11T12:24:34.366Z,3.43
2018-10-11T12:27:03.092Z,3.53
2018-10-11T12:29:31.901Z,3.17
2018-10-11T12:32:00.660Z,3.57
2018-10-11T12:34:29.380Z,3.50
2018-10-11T12:36:58.065Z,3.60
2018-10-11T12:39:26.719Z,3.90
2018-10-11T12:41:55.476Z,4.10
2018-10-11T12:44:24.169Z,4.00
2018-10-11T12:46:52.947Z,3.17
2018-10-11T12:49:21.735Z,1.50
2018-10-11T12:51:50.506Z,1.33
2018-10-11T12:54:19.268Z,1.87
2018-10-11T12:56:47.980Z,0.70
2018-10-11T12:59:16.715Z,1.20
2018-10-11T13:01:45.441Z,1.00
2018-10-11T13:04:14.189Z,1.43
2018-10-11T13:06:42.899Z,1.00
2018-10-11T13:09:11.715Z,1.40
2018-10-11T13:11:40.496Z,1.40
2018-10-11T13:14:09.292Z,1.03
2018-10-11T13:16:38.033Z,1.17
2018-10-11T13:19:06.798Z,1.00
2018-10-11T13:21:35.660Z,1.40
2018-10-11T13:24:04.571Z,1.50
2018-10-11T13:26:33.346Z,1.37
2018-10-11T13:29:02.260Z,0.97
2018-10-11T13:31:30.994Z,1.00
2018-10-11T13:33:59.785Z,1.40
2018-10-11T13:36:28.643Z,1.40
2018-10-11T13:38:57.408Z,1.33
2018-10-11T13:41:26.365Z,1.33
2018-10-11T13:43:55.090Z,1.20
2018-10-11T13:46:23.849Z,1.20
2018-10-11T13:48:52.589Z,0.90
2018-10-11T13:51:21.332Z,1.37
2018-10-11T13:53:55.482Z,1.10
2018-10-11T13:56:19.033Z,0.87
2018-10-11T13:58:47.898Z,0.60
2018-10-11T14:01:16.704Z,0.97
2018-10-11T14:03:46.080Z,1.03
2018-10-11T14:06:15.258Z,0.60
2018-10-11T14:08:44.090Z,1.17
2018-10-11T14:11:12.827Z,0.80
2018-10-11T14:13:41.698Z,0.80
2018-10-11T14:16:10.446Z,0.97
2018-10-11T14:18:39.667Z,0.40
2018-10-11T14:21:09.474Z,0.70
2018-10-11T14:23:38.710Z,0.50
2018-10-11T14:26:07.859Z,0.57
2018-10-11T14:28:38.569Z,0.60
2018-10-11T14:31:07.409Z,0.70
2018-10-11T14:33:36.139Z,0.80
2018-10-11T14:36:04.926Z,0.77
2018-10-11T14:38:35.026Z,0.97
2018-10-11T14:41:03.806Z,0.90
2018-10-11T14:43:32.658Z,0.60
2018-10-11T14:46:01.329Z,0.60
2018-10-11T14:48:30.256Z,0.80
2018-10-11T14:50:59.173Z,0.80
2018-10-11T14:53:27.913Z,0.63
2018-10-11T14:55:56.704Z,0.50
2018-10-11T14:58:25.664Z,0.80
2018-10-11T15:00:54.484Z,0.90
2018-10-11T15:03:23.492Z,0.60
2018-10-11T15:05:52.207Z,0.60
2018-10-11T15:08:20.980Z,0.80
2018-10-11T15:10:49.767Z,0.80
2018-10-11T15:13:18.504Z,0.40
2018-10-11T15:15:47.448Z,0.70
2018-10-11T15:18:16.430Z,0.50
2018-10-11T15:20:45.223Z,0.63
2018-10-11T15:23:13.990Z,0.40
2018-10-11T15:25:42.806Z,0.70
2018-10-11T15:28:11.600Z,0.70
2018-10-11T15:30:40.490Z,0.87
2018-10-11T15:33:09.877Z,0.87
2018-10-11T15:35:38.809Z,0.73
2018-10-11T15:38:16.139Z,1.00
2018-10-11T15:40:45.443Z,0.70
2018-10-11T15:43:14.249Z,1.20
2018-10-11T15:45:43.033Z,0.90
2018-10-11T15:48:11.777Z,0.70
2018-10-11T15:50:40.648Z,0.70
2018-10-11T15:53:09.560Z,0.57
2018-10-11T15:55:38.345Z,0.70
2018-10-11T15:58:07.179Z,0.77
2018-10-11T16:00:35.932Z,0.67
2018-10-11T16:03:04.703Z,0.80
2018-10-11T16:05:33.542Z,0.50
2018-10-11T16:08:02.276Z,0.63
2018-10-11T16:10:31.032Z,0.60
2018-10-11T16:12:59.845Z,0.57
2018-10-11T16:15:28.634Z,0.80
2018-10-11T16:17:57.456Z,1.03
2018-10-11T16:20:26.223Z,0.83
2018-10-11T16:22:54.976Z,1.03
2018-10-11T16:25:23.720Z,0.57
2018-10-11T16:27:52.492Z,1.10
2018-10-11T16:30:21.240Z,1.00
2018-10-11T16:32:49.941Z,0.80
2018-10-11T16:35:18.652Z,1.07
2018-10-11T16:37:47.385Z,0.80
2018-10-11T16:40:16.092Z,1.00
2018-10-11T16:42:44.827Z,0.87
2018-10-11T16:45:13.708Z,1.10
2018-10-11T16:47:42.493Z,0.80
2018-10-11T16:50:11.311Z,1.37
2018-10-11T16:52:40.047Z,0.90
2018-10-11T16:55:08.808Z,1.20
2018-10-11T16:57:37.527Z,1.27
2018-10-11T17:00:06.731Z,2.53
2018-10-11T17:02:35.578Z,1.50
2018-10-11T17:05:04.399Z,1.37
2018-10-11T17:07:33.162Z,1.63
2018-10-11T17:10:02.062Z,1.50
2018-10-11T17:12:30.642Z,1.20
2018-10-11T17:14:59.437Z,1.13
2018-10-11T17:17:28.972Z,1.20
2018-10-11T17:19:57.695Z,1.33
2018-10-11T17:22:26.487Z,1.30
2018-10-11T17:24:55.208Z,3.20
2018-10-11T17:27:24.223Z,7.00
2018-10-11T17:29:53.004Z,9.87
2018-10-11T17:32:21.807Z,7.00
2018-10-11T17:34:50.654Z,5.50
2018-10-11T17:37:19.355Z,8.57
2018-10-11T17:39:48.106Z,5.33
2018-10-11T17:42:17.031Z,2.40
2018-10-11T17:44:45.854Z,2.03
2018-10-11T17:47:22.812Z,2.33
2018-10-11T17:49:51.654Z,6.37
2018-10-11T17:52:20.469Z,6.73
2018-10-11T17:54:52.122Z,6.30
2018-10-11T17:57:21.414Z,6.20
2018-10-11T17:59:50.215Z,4.83
2018-10-11T18:02:20.159Z,4.27
2018-10-11T18:04:49.454Z,3.80
2018-10-11T18:07:18.433Z,5.60
2018-10-11T18:09:47.355Z,5.27
2018-10-11T18:12:16.220Z,5.67
2018-10-11T18:14:44.991Z,6.80
2018-10-11T18:17:13.762Z,6.17
2018-10-11T18:19:42.737Z,6.80
2018-10-11T18:22:11.550Z,3.53
2018-10-11T18:24:40.475Z,3.53
2018-10-11T18:27:09.368Z,3.43
2018-10-11T18:29:38.215Z,3.33
2018-10-11T18:32:07.067Z,3.63
2018-10-11T18:34:36.103Z,3.47
2018-10-11T18:37:04.908Z,3.63
2018-10-11T18:39:33.767Z,4.77
2018-10-11T18:42:02.515Z,3.27
2018-10-11T18:44:31.445Z,4.43
2018-10-11T18:47:00.140Z,3.60
2018-10-11T18:49:28.895Z,3.17
2018-10-11T18:51:57.604Z,2.23
2018-10-11T18:54:26.317Z,2.10
2018-10-11T18:56:55.165Z,1.90
2018-10-11T18:59:23.940Z,1.90
2018-10-11T19:01:52.655Z,2.00
2018-10-11T19:04:21.420Z,1.73
2018-10-11T19:06:50.146Z,1.90
2018-10-11T19:09:18.999Z,2.10
2018-10-11T19:11:47.784Z,2.17
2018-10-11T19:14:16.622Z,2.17
2018-10-11T19:16:45.387Z,2.10
2018-10-11T19:19:14.155Z,2.50
2018-10-11T19:21:42.963Z,1.97
2018-10-11T19:24:11.717Z,2.83
2018-10-11T19:26:40.543Z,3.80
2018-10-11T19:29:09.323Z,3.93
2018-10-11T19:31:38.032Z,4.13
2018-10-11T19:34:06.890Z,3.13
2018-10-11T19:36:35.615Z,6.07
2018-10-11T19:39:04.769Z,2.33
2018-10-11T19:41:33.487Z,2.97
2018-10-11T19:44:02.305Z,3.33
2018-10-11T19:46:31.060Z,3.40
2018-10-11T19:48:59.817Z,2.30
2018-10-11T19:51:28.609Z,2.10
2018-10-11T19:53:57.339Z,1.73
2018-10-11T19:56:26.101Z,2.33
2018-10-11T19:58:54.820Z,1.83
2018-10-11T20:01:23.526Z,1.80
2018-10-11T20:03:52.266Z,2.23
2018-10-11T20:06:21.030Z,2.33
2018-10-11T20:08:49.766Z,2.07
2018-10-11T20:11:18.546Z,2.50
2018-10-11T20:13:47.284Z,2.10
2018-10-11T20:16:16.047Z,1.93
2018-10-11T20:18:44.804Z,2.20
2018-10-11T20:21:13.608Z,2.33
2018-10-11T20:23:42.348Z,2.23
2018-10-11T20:26:11.104Z,2.47
2018-10-11T20:28:39.874Z,2.53
2018-10-11T20:31:08.741Z,2.03
2018-10-11T20:33:37.544Z,2.37
2018-10-11T20:36:06.457Z,2.13
2018-10-11T20:38:35.315Z,2.40
2018-10-11T20:41:04.144Z,2.90
2018-10-11T20:43:32.959Z,2.67
2018-10-11T20:46:01.730Z,2.70
2018-10-11T20:48:30.493Z,2.37
2018-10-11T20:50:59.308Z,2.07
2018-10-11T20:53:28.068Z,2.63
2018-10-11T20:55:56.799Z,2.67
2018-10-11T20:58:25.627Z,2.37
2018-10-11T21:00:54.416Z,2.90
2018-10-11T21:03:23.202Z,2.67
2018-10-11T21:05:52.018Z,2.80
2018-10-11T21:08:20.778Z,2.47
2018-10-11T21:10:49.548Z,2.37
2018-10-11T21:13:18.279Z,2.53
2018-10-11T21:15:46.977Z,2.30
2018-10-11T21:18:15.663Z,2.43
2018-10-11T21:20:44.415Z,2.50
2018-10-11T21:23:13.205Z,1.87
2018-10-11T21:25:41.956Z,2.40
2018-10-11T21:28:10.816Z,3.00
2018-10-11T21:30:39.547Z,2.37
2018-10-11T21:33:08.297Z,2.60
2018-10-11T21:35:37.021Z,2.20
2018-10-11T21:38:06.227Z,2.30
2018-10-11T21:40:34.957Z,2.37
2018-10-11T21:43:03.715Z,2.70
2018-10-11T21:45:32.518Z,2.73
2018-10-11T21:48:01.228Z,2.00
2018-10-11T21:50:30.028Z,3.03
2018-10-11T21:52:58.776Z,2.57
2018-10-11T21:55:27.480Z,2.10
2018-10-11T21:57:56.242Z,2.37
2018-10-11T22:00:29.112Z,2.57
2018-10-11T22:02:57.877Z,2.47
2018-10-11T22:05:26.610Z,2.57
2018-10-11T22:07:55.400Z,2.57
2018-10-11T22:10:24.195Z,2.37
2018-10-11T22:12:52.968Z,2.70
2018-10-11T22:15:21.662Z,2.23
2018-10-11T22:17:50.364Z,2.30
2018-10-11T22:20:19.142Z,2.87
2018-10-11T22:22:47.923Z,2.87
2018-10-11T22:25:16.690Z,1.97
2018-10-11T22:27:45.428Z,2.70
2018-10-11T22:30:14.224Z,2.43
2018-10-11T22:32:42.967Z,2.00
2018-10-11T22:35:11.762Z,3.13
2018-10-11T22:37:40.549Z,1.97
2018-10-11T22:40:09.321Z,2.90
2018-10-11T22:42:38.392Z,2.50
2018-10-11T22:45:07.171Z,2.33
2018-10-11T22:47:35.884Z,2.60
2018-10-11T22:50:04.968Z,3.20
2018-10-11T22:52:33.740Z,2.07
2018-10-11T22:55:02.543Z,2.50
2018-10-11T22:57:31.349Z,2.00
2018-10-11T23:00:00.120Z,2.63
2018-10-11T23:02:28.869Z,2.43
2018-10-11T23:04:57.629Z,2.33
2018-10-11T23:07:26.433Z,2.23
2018-10-11T23:09:55.317Z,1.80
2018-10-11T23:12:24.419Z,1.60
2018-10-11T23:14:53.448Z,1.70
2018-10-11T23:17:22.168Z,2.07
2018-10-11T23:19:50.900Z,1.40
2018-10-11T23:22:19.681Z,1.10
2018-10-11T23:24:48.396Z,1.67
2018-10-11T23:27:17.152Z,1.77
2018-10-11T23:29:45.844Z,1.60
2018-10-11T23:32:14.540Z,1.67
2018-10-11T23:34:43.293Z,1.50
2018-10-11T23:37:12.008Z,1.80
2018-10-11T23:39:40.708Z,1.40
2018-10-11T23:42:09.415Z,1.10
2018-10-11T23:44:38.221Z,1.57
2018-10-11T23:47:07.111Z,1.90
2018-10-11T23:49:35.883Z,1.60
2018-10-11T23:52:04.708Z,1.70
2018-10-11T23:54:33.560Z,1.77
2018-10-11T23:57:02.338Z,1.23
2018-10-11T23:59:31.099Z,1.60
